Aérodrome :
LOGIN :

S'inscrire | Disclaimer

   EN    FR    IT 

 










Légende :    VFR   VFR Marginal   IFR   IFR Intensif   IFR Très Intensif
Visi : 
Plafond : 
>= 8 km
>= 3000ft
5 à 8 km
1000 à 3000 ft
1500m à 5 km
500 à 1000 ft
800 à 1500m
200 à 500 ft
< 800m
< 200 ft
Symboles :   Orages  Brouillard  Fortes neiges  Fortes précipitations  Vent > 20 kt
SIGMETs :   Divers  Orages  Givrage  Turbulence  Onde Orograph.  Cendres Volcan.







- Altitude de l'aérodrome : 821 ft
- Code IATA : LYS
- Voir les cartes d'approche


LFLL - Lyon St Exupéry / Satolas

DERNIER METAR :
  • 181730Z 34010KT 9999 BKN032 04/M01 Q1022 NOSIG

METARs EXPIRÉS :
  • 181700Z 34012KT 9999 BKN032 04/M01 Q1022 NOSIG
  • 181630Z 34013KT 9999 BKN030 04/M01 Q1022 NOSIG
  • 181600Z 34012KT 9999 SCT023 04/M01 Q1022 NOSIG
  • 181530Z 35011KT 9999 SCT023 05/M01 Q1022 NOSIG
  • 181500Z 35010KT 9999 SCT021 05/M01 Q1022 NOSIG

TAF TAF LFLL
Valide du 18 à 18h jusqu'au 20 à 00h UTC


181700Z 1818/1924 35012KT 9999 BKN030
BECMG 1818/1821 NSC
BECMG 1821/1824 CAVOK
PROB40
TEMPO 1903/1910 VRB02KT 2000 BR BKN005
PROB30
TEMPO 1905/1908 0600 BCFG OVC002
Pas de NOTAMs connus pour ce terrain.



MET'MAP, la Météo Aéronautique d'un coup d'oeil ! - Copyright ORBIFLY Décembre 2007 - Disclaimer

ORBIFLY MET'MAP TEAM :

Programmation & Développement : Alexandra Zaïnal
Conception & Développement : Baudouin d'Aumeries
Co-Programmation & Développement : Marc-Olivier Méhu
Soutien technique & logistique : Manuel Goepfert

Contact : metmap@orbifly.com




SOURCES & CREDITS :

   NOAA